Alum Bridge, West Virginia
Current Conditions -  °F | °C
As of 4:55 PM on Friday 31 Oct 2014 (Local Time) from KW22 Reporting Station
Scattered Clouds Scattered Clouds  
Wind Chill:   Ceiling: Unl
Heat Index:   Visibility: 9mi
Dew Point:   Wind: 0mph
Humidity: 81%   Direction: NA
Pressure: 29.84"   Gusts: NA
Location:  39.04°N, 80.66°W
Report Text: KW22 312055Z AUTO 00000KT 9SM FEW010 FEW022 SCT032 06/03 A2984 RMK AO2
Loading
Personal Weather Stations






























Interactive Weather Map New forecast layout! Learn more

10-Day Weather Forecast

Advertisements
Track Severe Weather on mobile